sensor_id;sensor_type;location;lat;lon;timestamp;P1;durP1;ratioP1;P2;durP2;ratioP2
42094;SDS011;27753;55.724;37.612;2023-12-22T00:02:08;11.02;;;6.40;;
42094;SDS011;27753;55.724;37.612;2023-12-22T00:04:33;10.57;;;7.57;;
42094;SDS011;27753;55.724;37.612;2023-12-22T00:06:59;7.75;;;5.80;;
42094;SDS011;27753;55.724;37.612;2023-12-22T00:09:25;10.73;;;7.00;;
42094;SDS011;27753;55.724;37.612;2023-12-22T00:11:51;12.00;;;8.70;;
42094;SDS011;27753;55.724;37.612;2023-12-22T00:14:17;10.00;;;6.40;;
42094;SDS011;27753;55.724;37.612;2023-12-22T00:16:43;10.43;;;7.30;;
42094;SDS011;27753;55.724;37.612;2023-12-22T00:19:08;9.38;;;5.43;;
42094;SDS011;27753;55.724;37.612;2023-12-22T00:21:34;8.88;;;6.53;;
42094;SDS011;27753;55.724;37.612;2023-12-22T00:24:00;8.20;;;5.75;;
42094;SDS011;27753;55.724;37.612;2023-12-22T00:26:26;12.98;;;7.40;;
42094;SDS011;27753;55.724;37.612;2023-12-22T00:28:52;10.10;;;5.90;;
42094;SDS011;27753;55.724;37.612;2023-12-22T00:31:18;9.40;;;6.20;;
42094;SDS011;27753;55.724;37.612;2023-12-22T00:33:43;9.77;;;6.95;;
42094;SDS011;27753;55.724;37.612;2023-12-22T00:36:09;11.30;;;5.30;;
42094;SDS011;27753;55.724;37.612;2023-12-22T00:38:35;9.40;;;5.63;;
42094;SDS011;27753;55.724;37.612;2023-12-22T00:41:01;10.85;;;6.35;;
42094;SDS011;27753;55.724;37.612;2023-12-22T00:43:27;9.30;;;5.80;;
42094;SDS011;27753;55.724;37.612;2023-12-22T00:45:53;10.45;;;7.18;;
42094;SDS011;27753;55.724;37.612;2023-12-22T00:48:19;11.82;;;6.57;;
42094;SDS011;27753;55.724;37.612;2023-12-22T00:50:44;9.77;;;5.38;;
42094;SDS011;27753;55.724;37.612;2023-12-22T00:53:11;10.32;;;5.85;;
42094;SDS011;27753;55.724;37.612;2023-12-22T00:55:37;10.15;;;6.53;;
42094;SDS011;27753;55.724;37.612;2023-12-22T00:58:03;14.75;;;7.93;;
42094;SDS011;27753;55.724;37.612;2023-12-22T01:00:29;13.88;;;8.25;;
42094;SDS011;27753;55.724;37.612;2023-12-22T01:02:54;14.63;;;8.27;;
42094;SDS011;27753;55.724;37.612;2023-12-22T01:05:20;17.88;;;8.00;;
42094;SDS011;27753;55.724;37.612;2023-12-22T01:07:46;18.45;;;9.02;;
42094;SDS011;27753;55.724;37.612;2023-12-22T01:10:12;18.88;;;9.75;;
42094;SDS011;27753;55.724;37.612;2023-12-22T01:12:38;16.92;;;10.30;;
42094;SDS011;27753;55.724;37.612;2023-12-22T01:15:04;20.98;;;10.85;;
42094;SDS011;27753;55.724;37.612;2023-12-22T01:17:30;15.85;;;8.75;;
42094;SDS011;27753;55.724;37.612;2023-12-22T01:19:56;15.77;;;9.15;;
42094;SDS011;27753;55.724;37.612;2023-12-22T01:22:22;21.70;;;9.77;;
42094;SDS011;27753;55.724;37.612;2023-12-22T01:24:51;23.27;;;11.10;;
42094;SDS011;27753;55.724;37.612;2023-12-22T01:27:16;20.15;;;9.50;;
42094;SDS011;27753;55.724;37.612;2023-12-22T01:29:43;23.00;;;10.18;;
42094;SDS011;27753;55.724;37.612;2023-12-22T01:32:08;18.33;;;9.93;;
42094;SDS011;27753;55.724;37.612;2023-12-22T01:34:34;19.88;;;11.38;;
42094;SDS011;27753;55.724;37.612;2023-12-22T01:37:00;17.92;;;9.20;;
42094;SDS011;27753;55.724;37.612;2023-12-22T01:39:26;18.42;;;10.23;;
42094;SDS011;27753;55.724;37.612;2023-12-22T01:41:52;14.85;;;8.35;;
42094;SDS011;27753;55.724;37.612;2023-12-22T01:44:18;16.33;;;9.40;;
42094;SDS011;27753;55.724;37.612;2023-12-22T01:46:44;16.67;;;9.43;;
42094;SDS011;27753;55.724;37.612;2023-12-22T01:49:10;14.38;;;8.50;;
42094;SDS011;27753;55.724;37.612;2023-12-22T01:51:37;13.07;;;8.63;;
42094;SDS011;27753;55.724;37.612;2023-12-22T01:54:05;13.70;;;6.93;;
42094;SDS011;27753;55.724;37.612;2023-12-22T01:56:31;12.60;;;8.27;;
42094;SDS011;27753;55.724;37.612;2023-12-22T01:58:58;11.48;;;7.10;;
42094;SDS011;27753;55.724;37.612;2023-12-22T02:01:26;10.13;;;5.97;;
42094;SDS011;27753;55.724;37.612;2023-12-22T02:03:53;12.23;;;7.55;;
42094;SDS011;27753;55.724;37.612;2023-12-22T02:06:19;12.73;;;9.00;;
42094;SDS011;27753;55.724;37.612;2023-12-22T02:08:46;14.05;;;8.45;;
42094;SDS011;27753;55.724;37.612;2023-12-22T02:11:13;14.47;;;8.83;;
42094;SDS011;27753;55.724;37.612;2023-12-22T02:13:39;11.85;;;7.88;;
42094;SDS011;27753;55.724;37.612;2023-12-22T02:16:11;13.25;;;8.35;;
42094;SDS011;27753;55.724;37.612;2023-12-22T02:18:41;10.82;;;6.63;;
42094;SDS011;27753;55.724;37.612;2023-12-22T02:21:11;10.60;;;6.70;;
42094;SDS011;27753;55.724;37.612;2023-12-22T02:23:37;12.07;;;7.85;;
42094;SDS011;27753;55.724;37.612;2023-12-22T02:26:06;12.50;;;8.57;;
42094;SDS011;27753;55.724;37.612;2023-12-22T02:31:13;11.43;;;6.13;;
42094;SDS011;27753;55.724;37.612;2023-12-22T02:33:41;12.43;;;7.40;;
42094;SDS011;27753;55.724;37.612;2023-12-22T02:36:07;10.52;;;5.70;;
42094;SDS011;27753;55.724;37.612;2023-12-22T02:38:34;11.88;;;8.15;;
42094;SDS011;27753;55.724;37.612;2023-12-22T02:41:02;18.75;;;7.88;;
42094;SDS011;27753;55.724;37.612;2023-12-22T02:43:28;11.83;;;7.60;;
42094;SDS011;27753;55.724;37.612;2023-12-22T02:45:54;10.48;;;7.40;;
42094;SDS011;27753;55.724;37.612;2023-12-22T02:48:20;12.90;;;8.25;;
42094;SDS011;27753;55.724;37.612;2023-12-22T02:50:46;11.63;;;7.43;;
42094;SDS011;27753;55.724;37.612;2023-12-22T02:53:12;11.88;;;6.65;;
42094;SDS011;27753;55.724;37.612;2023-12-22T02:55:37;12.00;;;7.75;;
42094;SDS011;27753;55.724;37.612;2023-12-22T02:58:03;12.82;;;7.38;;
42094;SDS011;27753;55.724;37.612;2023-12-22T03:00:29;13.13;;;7.20;;
42094;SDS011;27753;55.724;37.612;2023-12-22T03:02:55;11.63;;;7.65;;
42094;SDS011;27753;55.724;37.612;2023-12-22T03:05:21;10.82;;;7.72;;
42094;SDS011;27753;55.724;37.612;2023-12-22T03:07:47;10.77;;;7.07;;
42094;SDS011;27753;55.724;37.612;2023-12-22T03:10:12;16.10;;;7.05;;
42094;SDS011;27753;55.724;37.612;2023-12-22T03:12:38;11.80;;;7.03;;
42094;SDS011;27753;55.724;37.612;2023-12-22T03:15:04;11.38;;;8.30;;
42094;SDS011;27753;55.724;37.612;2023-12-22T03:17:31;12.60;;;8.67;;
42094;SDS011;27753;55.724;37.612;2023-12-22T03:19:57;10.90;;;7.13;;
42094;SDS011;27753;55.724;37.612;2023-12-22T03:22:23;13.00;;;7.85;;
42094;SDS011;27753;55.724;37.612;2023-12-22T03:24:48;12.93;;;8.10;;
42094;SDS011;27753;55.724;37.612;2023-12-22T03:27:14;9.65;;;6.35;;
42094;SDS011;27753;55.724;37.612;2023-12-22T03:29:43;8.18;;;5.40;;
42094;SDS011;27753;55.724;37.612;2023-12-22T03:32:09;11.82;;;7.57;;
42094;SDS011;27753;55.724;37.612;2023-12-22T03:34:35;10.98;;;8.20;;
42094;SDS011;27753;55.724;37.612;2023-12-22T03:37:01;11.07;;;8.32;;
42094;SDS011;27753;55.724;37.612;2023-12-22T03:39:27;9.60;;;6.05;;
42094;SDS011;27753;55.724;37.612;2023-12-22T03:41:53;13.30;;;8.30;;
42094;SDS011;27753;55.724;37.612;2023-12-22T03:44:18;9.10;;;5.93;;
42094;SDS011;27753;55.724;37.612;2023-12-22T03:46:44;11.70;;;8.27;;
42094;SDS011;27753;55.724;37.612;2023-12-22T03:49:10;6.25;;;5.07;;
42094;SDS011;27753;55.724;37.612;2023-12-22T03:51:39;10.57;;;6.55;;
42094;SDS011;27753;55.724;37.612;2023-12-22T03:54:06;15.20;;;8.65;;
42094;SDS011;27753;55.724;37.612;2023-12-22T03:56:32;12.90;;;8.40;;
42094;SDS011;27753;55.724;37.612;2023-12-22T03:58:58;10.15;;;6.72;;
42094;SDS011;27753;55.724;37.612;2023-12-22T04:01:24;11.38;;;7.88;;
42094;SDS011;27753;55.724;37.612;2023-12-22T04:03:50;14.30;;;9.73;;
42094;SDS011;27753;55.724;37.612;2023-12-22T04:06:16;13.48;;;8.32;;
42094;SDS011;27753;55.724;37.612;2023-12-22T04:08:42;14.35;;;8.65;;
42094;SDS011;27753;55.724;37.612;2023-12-22T04:11:08;12.77;;;9.90;;
42094;SDS011;27753;55.724;37.612;2023-12-22T04:13:33;10.73;;;8.23;;
42094;SDS011;27753;55.724;37.612;2023-12-22T04:15:59;13.13;;;8.20;;
42094;SDS011;27753;55.724;37.612;2023-12-22T04:18:26;13.95;;;8.77;;
42094;SDS011;27753;55.724;37.612;2023-12-22T04:20:52;10.63;;;7.72;;
42094;SDS011;27753;55.724;37.612;2023-12-22T04:25:45;12.02;;;7.97;;
42094;SDS011;27753;55.724;37.612;2023-12-22T04:28:11;7.82;;;5.40;;
42094;SDS011;27753;55.724;37.612;2023-12-22T04:30:37;12.38;;;8.05;;
42094;SDS011;27753;55.724;37.612;2023-12-22T04:33:03;13.10;;;7.63;;
42094;SDS011;27753;55.724;37.612;2023-12-22T04:35:29;13.15;;;7.35;;
42094;SDS011;27753;55.724;37.612;2023-12-22T04:37:56;12.82;;;9.20;;
42094;SDS011;27753;55.724;37.612;2023-12-22T04:40:22;16.17;;;10.13;;
42094;SDS011;27753;55.724;37.612;2023-12-22T04:42:47;14.38;;;10.20;;
42094;SDS011;27753;55.724;37.612;2023-12-22T04:45:14;14.40;;;9.27;;
42094;SDS011;27753;55.724;37.612;2023-12-22T04:47:42;12.57;;;7.63;;
42094;SDS011;27753;55.724;37.612;2023-12-22T04:50:08;13.68;;;9.30;;
42094;SDS011;27753;55.724;37.612;2023-12-22T04:52:34;11.60;;;7.72;;
42094;SDS011;27753;55.724;37.612;2023-12-22T04:55:00;12.93;;;9.45;;
42094;SDS011;27753;55.724;37.612;2023-12-22T04:57:25;13.50;;;8.93;;
42094;SDS011;27753;55.724;37.612;2023-12-22T04:59:51;11.73;;;7.00;;
42094;SDS011;27753;55.724;37.612;2023-12-22T05:02:18;11.40;;;8.52;;
42094;SDS011;27753;55.724;37.612;2023-12-22T05:04:43;14.55;;;10.25;;
42094;SDS011;27753;55.724;37.612;2023-12-22T05:07:09;17.70;;;9.57;;
42094;SDS011;27753;55.724;37.612;2023-12-22T05:09:36;13.70;;;8.90;;
42094;SDS011;27753;55.724;37.612;2023-12-22T05:12:02;14.52;;;10.88;;
42094;SDS011;27753;55.724;37.612;2023-12-22T05:14:28;14.95;;;9.68;;
42094;SDS011;27753;55.724;37.612;2023-12-22T05:16:54;14.38;;;10.55;;
42094;SDS011;27753;55.724;37.612;2023-12-22T05:21:47;15.43;;;10.68;;
42094;SDS011;27753;55.724;37.612;2023-12-22T05:24:14;16.67;;;10.88;;
42094;SDS011;27753;55.724;37.612;2023-12-22T05:26:40;14.95;;;10.95;;
42094;SDS011;27753;55.724;37.612;2023-12-22T05:29:07;19.77;;;12.35;;
42094;SDS011;27753;55.724;37.612;2023-12-22T05:31:33;13.65;;;8.25;;
42094;SDS011;27753;55.724;37.612;2023-12-22T05:33:59;17.35;;;11.00;;
42094;SDS011;27753;55.724;37.612;2023-12-22T05:36:25;18.50;;;12.35;;
42094;SDS011;27753;55.724;37.612;2023-12-22T05:38:51;19.92;;;11.88;;
42094;SDS011;27753;55.724;37.612;2023-12-22T05:41:17;21.23;;;13.05;;
42094;SDS011;27753;55.724;37.612;2023-12-22T05:43:43;25.60;;;17.45;;
42094;SDS011;27753;55.724;37.612;2023-12-22T05:46:09;34.03;;;18.77;;
42094;SDS011;27753;55.724;37.612;2023-12-22T05:48:35;28.20;;;18.15;;
42094;SDS011;27753;55.724;37.612;2023-12-22T05:51:00;23.23;;;14.35;;
42094;SDS011;27753;55.724;37.612;2023-12-22T05:53:32;27.55;;;15.38;;
42094;SDS011;27753;55.724;37.612;2023-12-22T05:55:59;28.27;;;17.05;;
42094;SDS011;27753;55.724;37.612;2023-12-22T05:58:25;25.77;;;15.30;;
42094;SDS011;27753;55.724;37.612;2023-12-22T06:00:50;21.80;;;13.25;;
42094;SDS011;27753;55.724;37.612;2023-12-22T06:03:16;23.33;;;12.73;;
42094;SDS011;27753;55.724;37.612;2023-12-22T06:05:42;21.33;;;13.82;;
42094;SDS011;27753;55.724;37.612;2023-12-22T06:08:08;25.63;;;15.75;;
42094;SDS011;27753;55.724;37.612;2023-12-22T06:10:34;22.42;;;15.30;;
42094;SDS011;27753;55.724;37.612;2023-12-22T06:13:01;26.67;;;16.08;;
42094;SDS011;27753;55.724;37.612;2023-12-22T06:17:54;27.25;;;15.82;;
42094;SDS011;27753;55.724;37.612;2023-12-22T06:20:20;25.27;;;15.55;;
42094;SDS011;27753;55.724;37.612;2023-12-22T06:22:46;22.63;;;14.50;;
42094;SDS011;27753;55.724;37.612;2023-12-22T06:25:12;23.75;;;15.35;;
42094;SDS011;27753;55.724;37.612;2023-12-22T06:27:38;22.13;;;14.07;;
42094;SDS011;27753;55.724;37.612;2023-12-22T06:30:04;20.38;;;11.57;;
42094;SDS011;27753;55.724;37.612;2023-12-22T06:32:31;21.55;;;14.05;;
42094;SDS011;27753;55.724;37.612;2023-12-22T06:34:58;24.60;;;15.20;;
42094;SDS011;27753;55.724;37.612;2023-12-22T06:39:51;21.25;;;14.88;;
42094;SDS011;27753;55.724;37.612;2023-12-22T06:42:17;22.17;;;12.73;;
42094;SDS011;27753;55.724;37.612;2023-12-22T06:44:43;19.48;;;14.23;;
42094;SDS011;27753;55.724;37.612;2023-12-22T06:47:08;23.88;;;15.43;;
42094;SDS011;27753;55.724;37.612;2023-12-22T06:49:34;14.70;;;10.25;;
42094;SDS011;27753;55.724;37.612;2023-12-22T06:52:00;20.80;;;14.27;;
42094;SDS011;27753;55.724;37.612;2023-12-22T06:54:26;17.30;;;11.23;;
42094;SDS011;27753;55.724;37.612;2023-12-22T06:56:52;19.70;;;11.52;;
42094;SDS011;27753;55.724;37.612;2023-12-22T06:59:18;17.70;;;12.57;;
42094;SDS011;27753;55.724;37.612;2023-12-22T07:01:44;19.58;;;13.43;;
42094;SDS011;27753;55.724;37.612;2023-12-22T07:04:10;15.95;;;10.35;;
42094;SDS011;27753;55.724;37.612;2023-12-22T07:06:35;19.25;;;9.75;;
42094;SDS011;27753;55.724;37.612;2023-12-22T07:11:45;13.38;;;8.77;;
42094;SDS011;27753;55.724;37.612;2023-12-22T07:14:16;12.80;;;9.82;;
42094;SDS011;27753;55.724;37.612;2023-12-22T07:16:42;20.95;;;11.88;;
42094;SDS011;27753;55.724;37.612;2023-12-22T07:19:08;13.63;;;8.73;;
42094;SDS011;27753;55.724;37.612;2023-12-22T07:24:01;15.93;;;11.18;;
42094;SDS011;27753;55.724;37.612;2023-12-22T07:26:27;15.27;;;11.82;;
42094;SDS011;27753;55.724;37.612;2023-12-22T07:28:53;12.65;;;6.93;;
42094;SDS011;27753;55.724;37.612;2023-12-22T07:31:19;14.05;;;9.63;;
42094;SDS011;27753;55.724;37.612;2023-12-22T07:33:45;16.73;;;11.25;;
42094;SDS011;27753;55.724;37.612;2023-12-22T07:36:11;15.68;;;10.32;;
42094;SDS011;27753;55.724;37.612;2023-12-22T07:38:43;18.90;;;12.95;;
42094;SDS011;27753;55.724;37.612;2023-12-22T07:41:09;15.00;;;9.75;;
42094;SDS011;27753;55.724;37.612;2023-12-22T07:43:35;11.65;;;9.95;;
42094;SDS011;27753;55.724;37.612;2023-12-22T07:46:02;14.93;;;8.70;;
42094;SDS011;27753;55.724;37.612;2023-12-22T07:48:27;19.20;;;12.07;;
42094;SDS011;27753;55.724;37.612;2023-12-22T07:50:53;15.60;;;9.63;;
42094;SDS011;27753;55.724;37.612;2023-12-22T07:53:19;12.75;;;9.18;;
42094;SDS011;27753;55.724;37.612;2023-12-22T07:55:46;13.85;;;9.60;;
42094;SDS011;27753;55.724;37.612;2023-12-22T07:58:12;16.27;;;10.20;;
42094;SDS011;27753;55.724;37.612;2023-12-22T08:00:38;16.25;;;10.82;;
42094;SDS011;27753;55.724;37.612;2023-12-22T08:03:05;16.23;;;9.75;;
42094;SDS011;27753;55.724;37.612;2023-12-22T08:05:30;17.98;;;10.43;;
42094;SDS011;27753;55.724;37.612;2023-12-22T08:07:56;12.82;;;8.18;;
42094;SDS011;27753;55.724;37.612;2023-12-22T08:10:22;13.45;;;8.98;;
42094;SDS011;27753;55.724;37.612;2023-12-22T08:12:48;15.50;;;9.85;;
42094;SDS011;27753;55.724;37.612;2023-12-22T08:15:14;16.20;;;10.48;;
42094;SDS011;27753;55.724;37.612;2023-12-22T08:17:46;16.13;;;10.23;;
42094;SDS011;27753;55.724;37.612;2023-12-22T08:20:17;14.50;;;8.75;;
42094;SDS011;27753;55.724;37.612;2023-12-22T08:22:44;16.27;;;11.65;;
42094;SDS011;27753;55.724;37.612;2023-12-22T08:25:14;16.73;;;9.32;;
42094;SDS011;27753;55.724;37.612;2023-12-22T08:27:41;15.55;;;11.35;;
42094;SDS011;27753;55.724;37.612;2023-12-22T08:30:07;15.85;;;10.85;;
42094;SDS011;27753;55.724;37.612;2023-12-22T08:32:34;20.02;;;12.43;;
42094;SDS011;27753;55.724;37.612;2023-12-22T08:35:00;14.52;;;11.23;;
42094;SDS011;27753;55.724;37.612;2023-12-22T08:37:25;14.18;;;9.23;;
42094;SDS011;27753;55.724;37.612;2023-12-22T08:39:51;16.35;;;11.10;;
42094;SDS011;27753;55.724;37.612;2023-12-22T08:42:17;12.52;;;10.38;;
42094;SDS011;27753;55.724;37.612;2023-12-22T08:44:43;14.45;;;9.63;;
42094;SDS011;27753;55.724;37.612;2023-12-22T08:47:10;13.18;;;6.75;;
42094;SDS011;27753;55.724;37.612;2023-12-22T08:49:35;15.05;;;9.85;;
42094;SDS011;27753;55.724;37.612;2023-12-22T08:52:01;13.35;;;10.38;;
42094;SDS011;27753;55.724;37.612;2023-12-22T08:54:29;16.70;;;9.55;;
42094;SDS011;27753;55.724;37.612;2023-12-22T08:56:55;19.35;;;11.05;;
42094;SDS011;27753;55.724;37.612;2023-12-22T08:59:21;19.02;;;10.95;;
42094;SDS011;27753;55.724;37.612;2023-12-22T09:01:47;16.92;;;11.88;;
42094;SDS011;27753;55.724;37.612;2023-12-22T09:04:12;18.63;;;11.35;;
42094;SDS011;27753;55.724;37.612;2023-12-22T09:06:38;19.70;;;12.80;;
42094;SDS011;27753;55.724;37.612;2023-12-22T09:09:04;22.52;;;14.88;;
42094;SDS011;27753;55.724;37.612;2023-12-22T09:11:31;26.40;;;16.70;;
42094;SDS011;27753;55.724;37.612;2023-12-22T09:13:57;31.10;;;18.13;;
42094;SDS011;27753;55.724;37.612;2023-12-22T09:16:23;26.50;;;16.42;;
42094;SDS011;27753;55.724;37.612;2023-12-22T09:18:52;28.80;;;18.20;;
42094;SDS011;27753;55.724;37.612;2023-12-22T09:21:18;27.27;;;19.55;;
42094;SDS011;27753;55.724;37.612;2023-12-22T09:23:44;24.98;;;18.13;;
42094;SDS011;27753;55.724;37.612;2023-12-22T09:26:12;25.02;;;16.15;;
42094;SDS011;27753;55.724;37.612;2023-12-22T09:28:38;27.73;;;19.48;;
42094;SDS011;27753;55.724;37.612;2023-12-22T09:31:06;26.92;;;17.80;;
42094;SDS011;27753;55.724;37.612;2023-12-22T09:33:34;25.98;;;18.20;;
42094;SDS011;27753;55.724;37.612;2023-12-22T09:36:00;25.83;;;15.55;;
42094;SDS011;27753;55.724;37.612;2023-12-22T09:38:26;22.35;;;15.77;;
42094;SDS011;27753;55.724;37.612;2023-12-22T09:40:53;22.03;;;16.57;;
42094;SDS011;27753;55.724;37.612;2023-12-22T09:43:19;24.38;;;15.80;;
42094;SDS011;27753;55.724;37.612;2023-12-22T09:45:45;17.40;;;14.65;;
42094;SDS011;27753;55.724;37.612;2023-12-22T09:48:12;20.70;;;14.85;;
42094;SDS011;27753;55.724;37.612;2023-12-22T09:50:42;24.88;;;14.55;;
42094;SDS011;27753;55.724;37.612;2023-12-22T09:53:14;21.35;;;14.07;;
42094;SDS011;27753;55.724;37.612;2023-12-22T09:55:42;22.67;;;15.93;;
42094;SDS011;27753;55.724;37.612;2023-12-22T09:58:11;20.95;;;14.90;;
42094;SDS011;27753;55.724;37.612;2023-12-22T10:00:41;22.63;;;13.98;;
42094;SDS011;27753;55.724;37.612;2023-12-22T10:03:10;21.48;;;13.63;;
42094;SDS011;27753;55.724;37.612;2023-12-22T10:05:37;19.60;;;12.98;;
42094;SDS011;27753;55.724;37.612;2023-12-22T10:08:06;21.55;;;14.63;;
42094;SDS011;27753;55.724;37.612;2023-12-22T10:10:35;19.90;;;13.68;;
42094;SDS011;27753;55.724;37.612;2023-12-22T10:13:06;19.73;;;13.57;;
42094;SDS011;27753;55.724;37.612;2023-12-22T10:15:36;15.05;;;11.45;;
42094;SDS011;27753;55.724;37.612;2023-12-22T10:18:06;21.83;;;13.38;;
42094;SDS011;27753;55.724;37.612;2023-12-22T10:20:32;20.60;;;11.93;;
42094;SDS011;27753;55.724;37.612;2023-12-22T10:22:58;19.65;;;12.32;;
42094;SDS011;27753;55.724;37.612;2023-12-22T10:25:27;19.02;;;13.43;;
42094;SDS011;27753;55.724;37.612;2023-12-22T10:27:54;17.98;;;12.80;;
42094;SDS011;27753;55.724;37.612;2023-12-22T10:30:20;19.15;;;13.23;;
42094;SDS011;27753;55.724;37.612;2023-12-22T10:32:49;17.50;;;11.77;;
42094;SDS011;27753;55.724;37.612;2023-12-22T10:35:17;17.10;;;11.60;;
42094;SDS011;27753;55.724;37.612;2023-12-22T10:37:43;18.52;;;12.45;;
42094;SDS011;27753;55.724;37.612;2023-12-22T10:40:10;18.55;;;12.32;;
42094;SDS011;27753;55.724;37.612;2023-12-22T10:42:37;23.10;;;12.27;;
42094;SDS011;27753;55.724;37.612;2023-12-22T10:47:31;15.77;;;11.40;;
42094;SDS011;27753;55.724;37.612;2023-12-22T10:50:01;19.08;;;12.95;;
42094;SDS011;27753;55.724;37.612;2023-12-22T10:52:29;15.52;;;11.07;;
42094;SDS011;27753;55.724;37.612;2023-12-22T10:54:56;14.88;;;10.32;;
42094;SDS011;27753;55.724;37.612;2023-12-22T10:57:23;35.80;;;27.50;;
42094;SDS011;27753;55.724;37.612;2023-12-22T10:59:48;16.48;;;11.52;;
42094;SDS011;27753;55.724;37.612;2023-12-22T11:02:16;18.83;;;11.10;;
42094;SDS011;27753;55.724;37.612;2023-12-22T11:04:56;16.90;;;11.18;;
42094;SDS011;27753;55.724;37.612;2023-12-22T11:07:26;14.95;;;9.73;;
42094;SDS011;27753;55.724;37.612;2023-12-22T11:09:55;15.70;;;10.75;;
42094;SDS011;27753;55.724;37.612;2023-12-22T11:12:23;15.43;;;9.82;;
42094;SDS011;27753;55.724;37.612;2023-12-22T11:14:51;15.85;;;12.00;;
42094;SDS011;27753;55.724;37.612;2023-12-22T11:17:22;17.25;;;10.13;;
42094;SDS011;27753;55.724;37.612;2023-12-22T11:19:53;12.35;;;9.85;;
42094;SDS011;27753;55.724;37.612;2023-12-22T11:22:20;15.85;;;11.25;;
42094;SDS011;27753;55.724;37.612;2023-12-22T11:24:47;18.20;;;10.60;;
42094;SDS011;27753;55.724;37.612;2023-12-22T11:27:17;13.93;;;10.02;;
42094;SDS011;27753;55.724;37.612;2023-12-22T11:29:48;17.27;;;11.52;;
42094;SDS011;27753;55.724;37.612;2023-12-22T11:32:19;18.13;;;11.50;;
42094;SDS011;27753;55.724;37.612;2023-12-22T11:34:45;14.75;;;11.13;;
42094;SDS011;27753;55.724;37.612;2023-12-22T11:37:12;14.98;;;10.05;;
42094;SDS011;27753;55.724;37.612;2023-12-22T11:39:39;23.63;;;17.95;;
42094;SDS011;27753;55.724;37.612;2023-12-22T11:42:10;13.88;;;9.43;;
42094;SDS011;27753;55.724;37.612;2023-12-22T11:44:41;15.30;;;10.05;;
42094;SDS011;27753;55.724;37.612;2023-12-22T11:47:09;15.18;;;9.23;;
42094;SDS011;27753;55.724;37.612;2023-12-22T11:52:11;20.00;;;10.55;;
42094;SDS011;27753;55.724;37.612;2023-12-22T11:54:45;12.63;;;9.38;;
42094;SDS011;27753;55.724;37.612;2023-12-22T11:59:55;17.27;;;11.23;;
42094;SDS011;27753;55.724;37.612;2023-12-22T12:02:22;12.10;;;9.17;;
42094;SDS011;27753;55.724;37.612;2023-12-22T12:04:48;15.65;;;7.93;;
42094;SDS011;27753;55.724;37.612;2023-12-22T12:13:04;13.02;;;7.32;;
42094;SDS011;27753;55.724;37.612;2023-12-22T12:15:34;17.05;;;10.48;;
42094;SDS011;27753;55.724;37.612;2023-12-22T12:18:01;12.95;;;9.20;;
42094;SDS011;27753;55.724;37.612;2023-12-22T12:20:28;14.90;;;9.23;;
42094;SDS011;27753;55.724;37.612;2023-12-22T12:22:54;14.52;;;8.35;;
42094;SDS011;27753;55.724;37.612;2023-12-22T12:25:22;13.40;;;9.73;;
42094;SDS011;27753;55.724;37.612;2023-12-22T12:28:00;15.32;;;10.23;;
42094;SDS011;27753;55.724;37.612;2023-12-22T12:30:27;14.48;;;9.80;;
42094;SDS011;27753;55.724;37.612;2023-12-22T12:32:53;13.25;;;9.15;;
42094;SDS011;27753;55.724;37.612;2023-12-22T12:35:21;11.75;;;8.07;;
42094;SDS011;27753;55.724;37.612;2023-12-22T12:37:49;12.18;;;8.32;;
42094;SDS011;27753;55.724;37.612;2023-12-22T12:40:17;12.15;;;8.57;;
42094;SDS011;27753;55.724;37.612;2023-12-22T12:42:49;14.23;;;8.32;;
42094;SDS011;27753;55.724;37.612;2023-12-22T12:45:19;13.32;;;9.43;;
42094;SDS011;27753;55.724;37.612;2023-12-22T12:47:57;16.38;;;10.55;;
42094;SDS011;27753;55.724;37.612;2023-12-22T12:50:27;15.32;;;10.05;;
42094;SDS011;27753;55.724;37.612;2023-12-22T12:52:56;11.80;;;8.10;;
42094;SDS011;27753;55.724;37.612;2023-12-22T12:55:24;12.88;;;8.43;;
42094;SDS011;27753;55.724;37.612;2023-12-22T12:57:54;12.98;;;8.85;;
42094;SDS011;27753;55.724;37.612;2023-12-22T13:00:24;16.30;;;9.45;;
42094;SDS011;27753;55.724;37.612;2023-12-22T13:02:51;15.48;;;9.15;;
42094;SDS011;27753;55.724;37.612;2023-12-22T13:05:22;16.58;;;9.70;;
42094;SDS011;27753;55.724;37.612;2023-12-22T13:07:49;18.33;;;10.85;;
42094;SDS011;27753;55.724;37.612;2023-12-22T13:10:21;11.68;;;7.75;;
42094;SDS011;27753;55.724;37.612;2023-12-22T13:12:51;13.32;;;9.65;;
42094;SDS011;27753;55.724;37.612;2023-12-22T13:15:20;15.82;;;11.40;;
42094;SDS011;27753;55.724;37.612;2023-12-22T13:17:48;13.57;;;9.50;;
42094;SDS011;27753;55.724;37.612;2023-12-22T13:20:14;15.48;;;10.75;;
42094;SDS011;27753;55.724;37.612;2023-12-22T13:22:40;14.43;;;9.40;;
42094;SDS011;27753;55.724;37.612;2023-12-22T13:25:06;12.10;;;8.93;;
42094;SDS011;27753;55.724;37.612;2023-12-22T13:27:43;15.18;;;10.18;;
42094;SDS011;27753;55.724;37.612;2023-12-22T13:30:10;15.32;;;9.27;;
42094;SDS011;27753;55.724;37.612;2023-12-22T13:32:36;15.40;;;9.98;;
42094;SDS011;27753;55.724;37.612;2023-12-22T13:35:03;16.77;;;10.93;;
42094;SDS011;27753;55.724;37.612;2023-12-22T13:37:29;17.45;;;11.05;;
42094;SDS011;27753;55.724;37.612;2023-12-22T13:39:56;15.77;;;11.43;;
42094;SDS011;27753;55.724;37.612;2023-12-22T13:42:22;14.93;;;9.97;;
42094;SDS011;27753;55.724;37.612;2023-12-22T13:44:49;19.23;;;12.00;;
42094;SDS011;27753;55.724;37.612;2023-12-22T13:47:17;15.95;;;10.48;;
42094;SDS011;27753;55.724;37.612;2023-12-22T13:49:47;17.42;;;10.52;;
42094;SDS011;27753;55.724;37.612;2023-12-22T13:52:29;13.50;;;9.43;;
42094;SDS011;27753;55.724;37.612;2023-12-22T13:55:11;16.60;;;11.07;;
42094;SDS011;27753;55.724;37.612;2023-12-22T13:57:37;16.08;;;9.90;;
42094;SDS011;27753;55.724;37.612;2023-12-22T14:02:45;15.85;;;10.25;;
42094;SDS011;27753;55.724;37.612;2023-12-22T14:05:11;14.90;;;9.13;;
42094;SDS011;27753;55.724;37.612;2023-12-22T14:07:37;12.65;;;9.77;;
42094;SDS011;27753;55.724;37.612;2023-12-22T14:10:06;11.93;;;9.07;;
42094;SDS011;27753;55.724;37.612;2023-12-22T14:12:32;13.07;;;9.20;;
42094;SDS011;27753;55.724;37.612;2023-12-22T14:14:58;15.73;;;8.93;;
42094;SDS011;27753;55.724;37.612;2023-12-22T14:17:24;11.40;;;8.05;;
42094;SDS011;27753;55.724;37.612;2023-12-22T14:19:50;17.75;;;11.52;;
42094;SDS011;27753;55.724;37.612;2023-12-22T14:22:16;18.92;;;11.05;;
42094;SDS011;27753;55.724;37.612;2023-12-22T14:24:45;13.90;;;9.82;;
42094;SDS011;27753;55.724;37.612;2023-12-22T14:27:10;19.45;;;11.77;;
42094;SDS011;27753;55.724;37.612;2023-12-22T14:29:39;14.48;;;9.07;;
42094;SDS011;27753;55.724;37.612;2023-12-22T14:32:06;18.30;;;12.25;;
42094;SDS011;27753;55.724;37.612;2023-12-22T14:34:37;17.38;;;10.50;;
42094;SDS011;27753;55.724;37.612;2023-12-22T14:37:03;20.20;;;11.55;;
42094;SDS011;27753;55.724;37.612;2023-12-22T14:39:29;20.75;;;11.32;;
42094;SDS011;27753;55.724;37.612;2023-12-22T14:41:56;18.38;;;12.57;;
42094;SDS011;27753;55.724;37.612;2023-12-22T14:44:22;21.45;;;12.52;;
42094;SDS011;27753;55.724;37.612;2023-12-22T14:46:48;20.85;;;13.15;;
42094;SDS011;27753;55.724;37.612;2023-12-22T14:49:14;20.33;;;12.95;;